Time;durP1;ratioP1;P1;durP2;ratioP2;P2;SDS_P1;SDS_P2;PMS_P1;PMS_P2;Temp;Humidity;BMP_temperature;BMP_pressure;BME280_temperature;BME280_humidity;BME280_pressure;Samples;Min_cycle;Max_cycle;Signal;HPM_P1;HPM_P2
2023/01/20 00:03:59;;;;;;;43.22;21.75;;;0.90;99.90;;;;;;15196942;23;20058;-36
2023/01/20 00:10:01;;;;;;;50.88;22.67;;;0.90;99.90;;;;;;15171296;23;20128;-37
2023/01/20 00:16:07;;;;;;;47.25;22.25;;;0.90;99.90;;;;;;15198775;23;20022;-36
2023/01/20 00:22:09;;;;;;;45.83;21.30;;;0.80;99.90;;;;;;15200358;23;20256;-36
2023/01/20 00:28:11;;;;;;;46.97;23.17;;;0.80;99.90;;;;;;15203262;23;20109;-36
2023/01/20 00:34:13;;;;;;;44.65;21.98;;;0.90;99.90;;;;;;15200599;23;20101;-36
2023/01/20 00:40:15;;;;;;;45.78;22.95;;;0.80;99.90;;;;;;15200342;23;20025;-36
2023/01/20 00:46:17;;;;;;;45.63;24.63;;;0.90;99.90;;;;;;15202483;23;20435;-36
2023/01/20 00:52:19;;;;;;;51.33;23.38;;;0.90;99.90;;;;;;15200362;23;20026;-36
2023/01/20 00:58:21;;;;;;;50.28;23.48;;;1.00;99.90;;;;;;15202238;23;20100;-36
2023/01/20 01:04:23;;;;;;;52.83;24.15;;;0.80;99.90;;;;;;15202228;23;20032;-36
2023/01/20 01:10:25;;;;;;;43.03;21.98;;;0.80;99.90;;;;;;15203560;23;20030;-36
2023/01/20 01:16:27;;;;;;;36.33;19.50;;;0.80;99.90;;;;;;15202737;23;20022;-36
2023/01/20 01:22:31;;;;;;;39.00;19.90;;;0.70;99.90;;;;;;15199158;23;20026;-36
2023/01/20 01:28:33;;;;;;;38.83;18.92;;;0.70;99.90;;;;;;15202808;23;20467;-36
2023/01/20 01:34:35;;;;;;;44.55;21.63;;;0.60;99.90;;;;;;15197597;23;20479;-36
2023/01/20 01:40:37;;;;;;;42.15;20.60;;;0.70;99.90;;;;;;15201679;23;20026;-36
2023/01/20 01:46:40;;;;;;;41.33;20.20;;;0.70;99.90;;;;;;15202592;23;20136;-36
2023/01/20 01:52:47;;;;;;;41.83;20.73;;;0.70;99.90;;;;;;15178031;23;20030;-36
2023/01/20 01:58:52;;;;;;;39.08;19.55;;;0.70;99.90;;;;;;15196364;23;20018;-36
2023/01/20 02:04:54;;;;;;;43.97;19.85;;;0.80;99.90;;;;;;15198102;23;20034;-36
2023/01/20 02:10:56;;;;;;;40.95;19.50;;;0.80;99.90;;;;;;15197121;23;20114;-36
2023/01/20 02:17:22;;;;;;;41.53;20.05;;;0.80;99.90;;;;;;15198873;23;20026;-36
2023/01/20 02:23:49;;;;;;;41.47;20.35;;;0.80;99.90;;;;;;15195976;23;20455;-36
2023/01/20 02:30:13;;;;;;;36.67;17.58;;;0.80;99.90;;;;;;15198304;23;20105;-36
2023/01/20 02:36:39;;;;;;;35.90;17.50;;;0.90;99.90;;;;;;15203532;23;20045;-36
2023/01/20 02:42:48;;;;;;;36.28;18.40;;;0.90;99.90;;;;;;15202562;23;20455;-36
2023/01/20 02:48:57;;;;;;;39.03;18.70;;;1.00;99.90;;;;;;15197613;23;20022;-36
2023/01/20 02:55:04;;;;;;;36.15;17.63;;;0.90;99.90;;;;;;15191298;23;20104;-36
2023/01/20 03:01:13;;;;;;;35.13;17.38;;;1.00;99.90;;;;;;15140071;23;20041;-36
2023/01/20 03:07:18;;;;;;;45.60;18.75;;;0.90;99.90;;;;;;15195860;23;20032;-37
2023/01/20 03:13:57;;;;;;;35.40;18.75;;;0.80;99.90;;;;;;15199815;23;20359;-36
2023/01/20 03:20:00;;;;;;;43.33;20.48;;;0.80;99.90;;;;;;15182753;23;20499;-36
2023/01/20 03:26:06;;;;;;;42.88;21.23;;;0.80;99.90;;;;;;15176353;23;20493;-36
2023/01/20 03:32:09;;;;;;;47.15;23.10;;;0.70;99.90;;;;;;15200277;23;20038;-36
2023/01/20 03:38:11;;;;;;;50.50;24.23;;;0.70;99.90;;;;;;15201509;23;20801;-37
2023/01/20 03:44:39;;;;;;;47.80;23.20;;;0.70;99.90;;;;;;15173864;23;20022;-36
2023/01/20 03:50:53;;;;;;;50.08;25.52;;;0.70;99.90;;;;;;15199733;23;20044;-36
2023/01/20 03:57:03;;;;;;;50.90;25.47;;;0.70;99.90;;;;;;15203305;23;20021;-36
2023/01/20 04:03:09;;;;;;;52.83;25.98;;;0.60;99.90;;;;;;15140607;23;20026;-36
2023/01/20 04:09:18;;;;;;;59.15;25.42;;;0.60;99.90;;;;;;15202144;23;20022;-36
2023/01/20 04:15:22;;;;;;;58.55;26.40;;;0.50;99.90;;;;;;15201299;23;20022;-36
2023/01/20 04:21:44;;;;;;;57.78;25.90;;;0.50;99.90;;;;;;15203430;23;20101;-36
2023/01/20 04:27:46;;;;;;;57.25;26.67;;;0.60;99.90;;;;;;15202533;23;20092;-36
2023/01/20 04:33:47;;;;;;;57.67;28.38;;;0.60;99.90;;;;;;15177551;23;20108;-36
2023/01/20 04:39:49;;;;;;;56.22;27.23;;;0.70;99.90;;;;;;15204630;23;20026;-36
2023/01/20 04:45:51;;;;;;;60.85;27.05;;;0.70;99.90;;;;;;15196186;23;20138;-37
2023/01/20 04:51:53;;;;;;;59.97;28.05;;;0.60;99.90;;;;;;15203108;23;20351;-36
2023/01/20 04:57:55;;;;;;;63.10;29.02;;;0.60;99.90;;;;;;15199121;23;20029;-37
2023/01/20 05:03:57;;;;;;;61.38;29.33;;;0.60;99.90;;;;;;15203148;23;20340;-36
2023/01/20 05:09:59;;;;;;;69.07;29.58;;;0.50;99.90;;;;;;15200034;23;20030;-36
2023/01/20 05:16:01;;;;;;;57.88;27.95;;;0.40;99.90;;;;;;15195151;23;20030;-36
2023/01/20 05:22:03;;;;;;;60.47;27.65;;;0.40;99.90;;;;;;15205942;23;20124;-36
2023/01/20 05:28:05;;;;;;;60.38;26.67;;;0.50;99.90;;;;;;15199064;23;20053;-36
2023/01/20 05:34:08;;;;;;;58.53;28.20;;;0.40;99.90;;;;;;15196256;23;20025;-36
2023/01/20 05:40:11;;;;;;;56.85;26.83;;;0.40;99.90;;;;;;15197001;23;20328;-36
2023/01/20 05:46:14;;;;;;;62.35;26.77;;;0.30;99.90;;;;;;15199943;23;20030;-36
2023/01/20 05:52:16;;;;;;;68.28;28.48;;;0.20;99.90;;;;;;15200035;23;20022;-37
2023/01/20 05:58:18;;;;;;;56.17;26.17;;;0.20;99.90;;;;;;15200214;23;20026;-36
2023/01/20 06:04:19;;;;;;;63.15;27.92;;;0.10;99.90;;;;;;15203759;23;20038;-36
2023/01/20 06:10:28;;;;;;;58.70;26.55;;;0.10;99.90;;;;;;15195301;23;20037;-36
2023/01/20 06:16:31;;;;;;;60.47;26.63;;;0.20;99.90;;;;;;15202843;23;20053;-35
2023/01/20 06:22:33;;;;;;;55.28;25.50;;;0.30;99.90;;;;;;15198891;23;20022;-36
2023/01/20 06:28:35;;;;;;;59.13;25.05;;;0.40;99.90;;;;;;15195896;23;20527;-36
2023/01/20 06:34:37;;;;;;;57.75;25.27;;;0.40;99.90;;;;;;15191436;23;20101;-36
2023/01/20 06:40:39;;;;;;;54.80;23.58;;;0.60;99.90;;;;;;15202983;23;20470;-36
2023/01/20 06:46:41;;;;;;;48.00;24.73;;;0.60;99.90;;;;;;15193718;23;20531;-35
2023/01/20 06:52:43;;;;;;;52.70;23.58;;;0.70;99.90;;;;;;15201361;23;20022;-36
2023/01/20 06:58:45;;;;;;;47.28;23.08;;;0.70;99.90;;;;;;15197623;23;20018;-36
2023/01/20 07:04:50;;;;;;;51.67;24.50;;;0.70;99.90;;;;;;15200003;23;20034;-36
2023/01/20 07:10:51;;;;;;;;;;;0.60;99.90;;;;;;15195845;23;20030;-36
2023/01/20 07:16:53;;;;;;;45.13;21.83;;;0.60;99.90;;;;;;15197643;23;19925;-36
2023/01/20 07:22:59;;;;;;;50.65;23.05;;;0.60;99.90;;;;;;15202535;23;20022;-37
2023/01/20 07:29:01;;;;;;;47.15;23.10;;;0.60;99.90;;;;;;15195050;23;20117;-36
2023/01/20 07:35:03;;;;;;;51.83;23.98;;;0.60;99.90;;;;;;15196094;23;20058;-36
2023/01/20 07:41:14;;;;;;;47.88;23.95;;;0.70;99.90;;;;;;15204101;23;20422;-36
2023/01/20 07:47:17;;;;;;;54.00;24.98;;;0.70;99.90;;;;;;15200394;23;20133;-37
2023/01/20 07:53:19;;;;;;;50.95;24.70;;;0.80;99.90;;;;;;15173922;23;20028;-36
2023/01/20 07:59:21;;;;;;;51.42;24.63;;;0.80;99.90;;;;;;15200673;23;20100;-36
2023/01/20 08:05:23;;;;;;;49.25;23.63;;;0.80;99.90;;;;;;15173374;23;20026;-37
2023/01/20 08:11:25;;;;;;;48.80;24.48;;;0.80;99.90;;;;;;15196888;23;20412;-37
2023/01/20 08:17:27;;;;;;;49.97;23.98;;;0.80;99.90;;;;;;15201613;23;20026;-36
2023/01/20 08:23:29;;;;;;;53.55;24.70;;;0.90;99.90;;;;;;15196571;23;20033;-36
2023/01/20 08:29:32;;;;;;;50.63;24.17;;;0.90;99.90;;;;;;15197640;23;20139;-37
2023/01/20 08:35:35;;;;;;;52.47;24.00;;;0.90;99.90;;;;;;15193818;23;20424;-36
2023/01/20 08:41:40;;;;;;;51.97;23.98;;;1.00;99.90;;;;;;15200186;23;20026;-36
2023/01/20 08:47:44;;;;;;;47.10;23.38;;;1.00;99.90;;;;;;15173646;23;20077;-36
2023/01/20 08:53:47;;;;;;;49.67;23.95;;;1.00;99.90;;;;;;15201303;23;20515;-36
2023/01/20 08:59:49;;;;;;;49.80;24.52;;;1.10;99.90;;;;;;15203852;23;20030;-36
2023/01/20 09:05:52;;;;;;;52.75;24.35;;;1.20;99.90;;;;;;15200882;23;20117;-37
2023/01/20 09:11:54;;;;;;;46.50;22.17;;;1.30;99.90;;;;;;15200322;23;20030;-36
2023/01/20 09:17:57;;;;;;;45.70;23.20;;;1.40;99.90;;;;;;15202684;23;20033;-37
2023/01/20 09:23:59;;;;;;;48.45;22.08;;;1.50;99.90;;;;;;15200447;23;20022;-36
2023/01/20 09:30:03;;;;;;;47.63;22.25;;;1.50;99.90;;;;;;15200615;23;20026;-37
2023/01/20 09:36:09;;;;;;;41.80;20.80;;;1.60;99.90;;;;;;15197491;23;20439;-36
2023/01/20 09:55:55;;;;;;;42.75;22.17;;;1.70;99.90;;;;;;15199970;23;20350;-36
2023/01/20 10:02:01;;;;;;;42.58;21.70;;;1.40;99.90;;;;;;15197085;23;20337;-36
2023/01/20 10:08:19;;;;;;;46.63;22.10;;;1.30;99.90;;;;;;15199841;23;20399;-36
2023/01/20 10:14:29;;;;;;;43.13;22.35;;;1.40;99.90;;;;;;15200946;23;20526;-36
2023/01/20 10:20:52;;;;;;;43.50;21.67;;;1.60;99.90;;;;;;15200767;23;20057;-37
2023/01/20 10:27:02;;;;;;;39.87;20.50;;;1.90;99.90;;;;;;15202468;23;20157;-37
2023/01/20 10:33:12;;;;;;;34.60;19.17;;;2.10;99.90;;;;;;15198859;23;20100;-37
2023/01/20 10:39:24;;;;;;;35.35;18.45;;;2.00;99.90;;;;;;15199121;23;20455;-37
2023/01/20 10:45:59;;;;;;;35.40;18.38;;;2.20;99.90;;;;;;15172739;23;20022;-36
2023/01/20 10:52:10;;;;;;;32.88;18.00;;;2.70;99.90;;;;;;15199416;23;20490;-37
2023/01/20 10:58:27;;;;;;;33.72;18.00;;;2.80;99.90;;;;;;15200001;23;20022;-36
2023/01/20 11:04:30;;;;;;;30.30;16.42;;;2.80;99.90;;;;;;15127647;23;20033;-37
2023/01/20 11:10:32;;;;;;;33.33;16.95;;;2.70;99.90;;;;;;15123049;23;20025;-37
2023/01/20 11:16:35;;;;;;;25.92;14.98;;;2.70;99.90;;;;;;15128617;23;20030;-36
2023/01/20 11:22:38;;;;;;;27.67;15.60;;;2.70;99.90;;;;;;15124422;23;20090;-36
2023/01/20 11:28:48;;;;;;;24.98;14.00;;;2.80;99.90;;;;;;15129478;23;20030;-37
2023/01/20 11:34:51;;;;;;;22.67;12.55;;;2.60;99.90;;;;;;15129504;23;20597;-36
2023/01/20 11:40:56;;;;;;;21.67;12.07;;;2.60;99.90;;;;;;15127299;23;20077;-37
2023/01/20 11:47:23;;;;;;;16.70;9.75;;;2.70;99.90;;;;;;15129265;23;20101;-36
2023/01/20 11:53:30;;;;;;;22.67;11.82;;;2.70;99.90;;;;;;15124791;23;20030;-37
2023/01/20 11:59:45;;;;;;;17.95;10.07;;;2.60;99.90;;;;;;15123535;23;20102;-36
2023/01/20 12:05:58;;;;;;;19.63;10.05;;;2.70;99.90;;;;;;15177421;23;20108;-36
2023/01/20 12:12:05;;;;;;;15.30;9.13;;;2.80;99.90;;;;;;15194572;23;20026;-36
2023/01/20 12:18:37;;;;;;;16.75;10.00;;;2.90;99.90;;;;;;15175580;23;20459;-37
2023/01/20 12:25:09;;;;;;;17.30;9.50;;;2.70;99.90;;;;;;15187250;23;20350;-37
2023/01/20 12:31:16;;;;;;;18.15;8.80;;;2.80;99.90;;;;;;15206747;23;20018;-37
2023/01/20 12:37:52;;;;;;;17.05;9.25;;;2.60;99.90;;;;;;15204708;23;20068;-37
2023/01/20 12:44:26;;;;;;;16.33;9.98;;;2.60;99.90;;;;;;15205039;23;20030;-37
2023/01/20 12:50:34;;;;;;;15.02;8.57;;;2.50;99.90;;;;;;15203773;23;20045;-37
2023/01/20 12:56:42;;;;;;;19.45;9.32;;;2.50;99.90;;;;;;15203262;23;20018;-37
2023/01/20 13:02:47;;;;;;;18.38;9.18;;;2.40;99.90;;;;;;15199507;23;20026;-36
2023/01/20 13:09:08;;;;;;;19.65;9.02;;;2.30;99.90;;;;;;15197305;23;20026;-37
2023/01/20 13:15:24;;;;;;;17.20;9.57;;;2.30;99.90;;;;;;15202897;23;20094;-36
2023/01/20 13:21:26;;;;;;;17.10;9.05;;;2.30;99.90;;;;;;15178139;23;20025;-36
2023/01/20 13:27:36;;;;;;;19.90;9.65;;;2.50;99.90;;;;;;15203903;23;20029;-36
2023/01/20 13:33:40;;;;;;;17.20;8.23;;;2.30;99.90;;;;;;15202373;23;20059;-37
2023/01/20 13:39:44;;;;;;;17.83;8.30;;;2.30;99.90;;;;;;15200974;23;20018;-37
2023/01/20 13:45:46;;;;;;;11.88;7.40;;;2.40;99.90;;;;;;15195895;23;20530;-36
2023/01/20 13:51:48;;;;;;;13.82;7.60;;;2.30;99.90;;;;;;15199761;23;20030;-36
2023/01/20 13:57:50;;;;;;;14.10;7.95;;;2.20;99.90;;;;;;15200854;23;20032;-37
2023/01/20 14:04:15;;;;;;;14.52;7.38;;;2.10;99.90;;;;;;15200968;23;20022;-36
2023/01/20 14:10:18;;;;;;;17.10;7.60;;;2.10;99.90;;;;;;15192502;23;20060;-36
2023/01/20 14:16:40;;;;;;;11.10;6.55;;;2.10;99.90;;;;;;15201788;23;20018;-36
2023/01/20 14:22:42;;;;;;;11.13;6.25;;;2.00;99.90;;;;;;15200420;23;20027;-37
2023/01/20 14:28:46;;;;;;;12.05;6.40;;;2.10;99.90;;;;;;15201578;23;20080;-37
2023/01/20 14:34:49;;;;;;;11.88;7.15;;;2.10;99.90;;;;;;15200050;23;20057;-36
2023/01/20 14:40:52;;;;;;;14.20;7.47;;;2.10;99.90;;;;;;15196370;23;20145;-36
2023/01/20 14:46:58;;;;;;;15.57;8.32;;;2.10;99.90;;;;;;15202746;23;20022;-37
2023/01/20 14:53:01;;;;;;;14.30;8.38;;;2.10;99.90;;;;;;15170794;23;20412;-36
2023/01/20 14:59:03;;;;;;;17.30;8.98;;;2.10;99.90;;;;;;15197529;23;20046;-37
2023/01/20 15:05:26;;;;;;;14.25;8.75;;;2.00;99.90;;;;;;15200191;23;20021;-37
2023/01/20 15:11:31;;;;;;;18.77;11.93;;;2.00;99.90;;;;;;15171138;23;20105;-37
2023/01/20 15:17:33;;;;;;;20.93;11.90;;;1.90;99.90;;;;;;15200494;23;20346;-36
2023/01/20 15:23:37;;;;;;;20.30;11.57;;;1.80;99.90;;;;;;15189129;23;20025;-36
2023/01/20 15:29:39;;;;;;;21.00;11.07;;;1.70;99.90;;;;;;15197677;23;20398;-37
2023/01/20 15:35:42;;;;;;;20.20;11.88;;;1.60;99.90;;;;;;15197358;23;20132;-37
2023/01/20 15:41:47;;;;;;;22.50;12.27;;;1.60;99.90;;;;;;15200300;23;20351;-36
2023/01/20 15:47:49;;;;;;;;;;;1.60;99.90;;;;;;15194955;23;20395;-36
2023/01/20 15:53:51;;;;;;;23.48;12.50;;;1.50;99.90;;;;;;15196158;23;19972;-37
2023/01/20 15:59:53;;;;;;;21.77;11.07;;;1.40;99.90;;;;;;15199265;23;20172;-36
2023/01/20 16:05:55;;;;;;;32.15;17.55;;;1.40;99.90;;;;;;15195218;23;20030;-37
2023/01/20 16:11:57;;;;;;;22.50;13.15;;;1.30;99.90;;;;;;15195888;23;20025;-37
2023/01/20 16:17:59;;;;;;;26.25;14.63;;;1.30;99.90;;;;;;15198044;23;20335;-37
2023/01/20 16:24:01;;;;;;;31.80;17.48;;;1.20;99.90;;;;;;15192587;23;20030;-37
2023/01/20 16:30:03;;;;;;;30.73;15.55;;;1.10;99.90;;;;;;15201655;23;20477;-37
2023/01/20 16:36:09;;;;;;;53.30;25.95;;;1.00;99.90;;;;;;15189608;23;20105;-37
2023/01/20 16:42:13;;;;;;;26.08;13.98;;;1.00;99.90;;;;;;15200949;23;20375;-36
2023/01/20 16:48:14;;;;;;;30.55;15.32;;;0.90;99.90;;;;;;15197062;23;20030;-36
2023/01/20 16:54:16;;;;;;;25.10;13.30;;;0.90;99.90;;;;;;15201011;23;20026;-37
2023/01/20 17:00:19;;;;;;;20.65;11.82;;;1.00;99.90;;;;;;15199434;23;20049;-37
2023/01/20 17:06:24;;;;;;;23.63;12.65;;;1.00;99.90;;;;;;15198462;23;20034;-36
2023/01/20 17:12:26;;;;;;;27.42;15.45;;;1.10;99.90;;;;;;15204370;23;20033;-37
2023/01/20 17:18:28;;;;;;;22.60;13.70;;;1.10;99.90;;;;;;15202329;23;20133;-37
2023/01/20 17:24:31;;;;;;;25.35;14.90;;;1.10;99.90;;;;;;15202428;23;20040;-36
2023/01/20 17:30:33;;;;;;;24.02;13.23;;;1.00;99.90;;;;;;15202513;23;20030;-36
2023/01/20 17:36:36;;;;;;;21.48;13.70;;;0.90;99.90;;;;;;15177357;23;20026;-37
2023/01/20 17:42:38;;;;;;;22.17;13.20;;;0.80;99.90;;;;;;15178852;23;20029;-37
2023/01/20 17:48:41;;;;;;;20.88;11.88;;;0.80;99.90;;;;;;15203434;23;20065;-37
2023/01/20 17:54:43;;;;;;;20.70;11.88;;;0.70;99.90;;;;;;15202840;23;20026;-36
2023/01/20 18:00:45;;;;;;;25.52;12.50;;;0.60;99.90;;;;;;15201269;23;20366;-37
2023/01/20 18:06:47;;;;;;;23.20;12.45;;;0.60;99.90;;;;;;15201804;23;20443;-36
2023/01/20 18:12:49;;;;;;;23.80;12.20;;;0.50;99.90;;;;;;15202030;23;20022;-37
2023/01/20 18:18:52;;;;;;;29.65;14.13;;;0.30;99.90;;;;;;15200699;23;20029;-36
2023/01/20 18:24:54;;;;;;;21.25;12.95;;;0.20;99.90;;;;;;15180060;23;20455;-36
2023/01/20 18:31:01;;;;;;;26.55;13.40;;;0.10;99.90;;;;;;15201313;23;20084;-36
2023/01/20 18:37:04;;;;;;;20.98;12.07;;;0.00;99.90;;;;;;15199468;23;20032;-36
2023/01/20 18:43:06;;;;;;;20.60;11.55;;;-0.10;99.90;;;;;;15202043;23;20029;-36
2023/01/20 18:49:11;;;;;;;23.77;12.05;;;-0.20;99.90;;;;;;15197083;23;20509;-36
2023/01/20 18:55:13;;;;;;;23.15;12.98;;;-0.20;99.90;;;;;;15198789;23;20116;-36
2023/01/20 19:01:17;;;;;;;25.85;13.30;;;-0.20;99.90;;;;;;15198694;23;20057;-36
2023/01/20 19:07:19;;;;;;;28.83;14.30;;;-0.40;99.90;;;;;;15198140;23;20057;-36
2023/01/20 19:13:21;;;;;;;29.30;14.52;;;-0.60;99.90;;;;;;15201657;23;20065;-36
2023/01/20 19:19:23;;;;;;;29.77;15.35;;;-0.60;99.90;;;;;;15202027;23;20032;-36
2023/01/20 19:25:28;;;;;;;24.20;13.38;;;-0.70;99.90;;;;;;15172724;23;20108;-36
2023/01/20 19:31:32;;;;;;;27.55;13.50;;;-0.70;99.90;;;;;;15202640;23;20346;-36
2023/01/20 19:37:34;;;;;;;29.20;13.45;;;-0.60;99.90;;;;;;15198069;23;20018;-36
2023/01/20 19:43:37;;;;;;;27.08;14.07;;;-0.60;99.90;;;;;;15197698;23;20112;-36
2023/01/20 19:49:39;;;;;;;27.40;13.80;;;-0.60;99.90;;;;;;15196417;23;20022;-36
2023/01/20 19:55:41;;;;;;;24.33;13.07;;;-0.70;99.90;;;;;;15199249;23;20037;-36
2023/01/20 20:01:43;;;;;;;26.63;15.30;;;-0.80;99.90;;;;;;15197360;23;20026;-36
2023/01/20 20:07:44;;;;;;;25.25;13.70;;;-0.80;99.90;;;;;;15196569;23;20026;-36
2023/01/20 20:13:46;;;;;;;25.80;13.55;;;-0.80;99.90;;;;;;15195273;23;20026;-36
2023/01/20 20:19:48;;;;;;;30.33;15.70;;;-0.90;99.90;;;;;;15175507;23;20030;-36
2023/01/20 20:25:55;;;;;;;27.13;14.30;;;-1.00;99.90;;;;;;15197487;23;20022;-36
2023/01/20 20:31:56;;;;;;;28.75;14.40;;;-1.10;99.90;;;;;;15199535;23;20064;-36
2023/01/20 20:37:58;;;;;;;25.85;13.88;;;-1.10;99.90;;;;;;15200088;23;20029;-36
2023/01/20 20:44:01;;;;;;;25.13;14.73;;;-1.20;99.90;;;;;;15204285;23;20341;-36
2023/01/20 20:50:03;;;;;;;31.70;15.40;;;-1.20;99.90;;;;;;15197445;23;20026;-36
2023/01/20 20:56:07;;;;;;;27.80;14.93;;;-1.20;99.90;;;;;;15203486;23;20022;-35
2023/01/20 21:02:12;;;;;;;30.75;15.95;;;-1.30;99.90;;;;;;15205342;23;20321;-36
2023/01/20 21:08:15;;;;;;;26.35;14.45;;;-1.30;99.90;;;;;;15200364;23;20057;-36
2023/01/20 21:14:20;;;;;;;25.55;14.13;;;-1.30;99.90;;;;;;15200544;23;20399;-36
2023/01/20 21:20:21;;;;;;;;;;;-1.40;99.90;;;;;;15204712;23;20032;-36
2023/01/20 21:26:25;;;;;;;31.17;14.70;;;-1.40;99.90;;;;;;15200927;23;20032;-36
2023/01/20 21:32:30;;;;;;;28.33;14.95;;;-1.50;99.90;;;;;;15203512;23;20144;-36
2023/01/20 21:38:32;;;;;;;29.67;16.02;;;-1.50;99.90;;;;;;15200570;23;20022;-36
2023/01/20 21:44:35;;;;;;;28.27;15.07;;;-1.50;99.90;;;;;;15172508;23;20362;-36
2023/01/20 21:56:58;;;;;;;30.08;15.25;;;-1.40;99.90;;;;;;15203867;23;20029;-36
2023/01/20 22:03:00;;;;;;;33.88;18.40;;;-1.30;99.90;;;;;;15200087;23;20026;-36
2023/01/20 22:09:02;;;;;;;36.42;17.80;;;-1.30;99.90;;;;;;15198017;23;20066;-35
2023/01/20 22:15:04;;;;;;;32.85;15.68;;;-1.30;99.90;;;;;;15173233;23;20104;-36
2023/01/20 22:21:06;;;;;;;32.25;17.23;;;-1.30;99.90;;;;;;15201233;23;20018;-36
2023/01/20 22:27:08;;;;;;;34.05;17.17;;;-1.30;99.90;;;;;;15199894;23;20108;-36
2023/01/20 22:33:10;;;;;;;28.38;14.82;;;-1.40;99.90;;;;;;15198596;23;20141;-36
2023/01/20 22:39:13;;;;;;;33.35;15.27;;;-1.40;99.90;;;;;;15202579;23;20041;-36
2023/01/20 22:45:14;;;;;;;32.70;17.33;;;-1.60;99.90;;;;;;15193545;23;20064;-36
2023/01/20 22:51:22;;;;;;;26.98;14.13;;;-1.60;99.90;;;;;;15201384;23;20124;-36
2023/01/20 22:57:23;;;;;;;27.38;14.88;;;-1.60;99.90;;;;;;15196552;23;20096;-36
2023/01/20 23:03:26;;;;;;;28.70;14.52;;;-1.60;99.90;;;;;;15177412;23;20095;-36
2023/01/20 23:09:28;;;;;;;25.05;14.13;;;-1.50;99.90;;;;;;15200079;23;20101;-36
2023/01/20 23:15:30;;;;;;;25.77;14.00;;;-1.50;99.90;;;;;;15199145;23;20050;-36
2023/01/20 23:21:36;;;;;;;29.65;15.02;;;-1.60;99.90;;;;;;15201228;23;20458;-35
2023/01/20 23:27:44;;;;;;;33.60;16.60;;;-1.70;99.90;;;;;;15177771;23;20022;-36
2023/01/20 23:33:59;;;;;;;39.15;18.17;;;-1.70;99.90;;;;;;15195068;23;20092;-37
2023/01/20 23:40:13;;;;;;;29.90;15.40;;;-1.80;99.90;;;;;;15205707;23;20021;-36
2023/01/20 23:46:15;;;;;;;33.00;17.00;;;-1.80;99.90;;;;;;15205445;23;20053;-37
2023/01/20 23:52:18;;;;;;;36.47;16.52;;;-1.90;99.90;;;;;;15205616;23;20359;-36
2023/01/20 23:58:19;;;;;;;27.80;14.65;;;-1.90;99.90;;;;;;15204180;23;20057;-36
